Time;durP1;ratioP1;P1;durP2;ratioP2;P2;SDS_P1;SDS_P2;PMS_P1;PMS_P2;Temp;Humidity;BMP_temperature;BMP_pressure;BME280_temperature;BME280_humidity;BME280_pressure;Samples;Min_cycle;Max_cycle;Signal;HPM_P1;HPM_P2
2023/09/20 00:00:29;;;;;;;2.95;1.02;;;21.10;99.90;;;;;;5031156;28;20485;-39
2023/09/20 00:02:55;;;;;;;3.90;1.20;;;21.20;99.90;;;;;;5031203;28;20516;-43
2023/09/20 00:05:22;;;;;;;2.25;1.10;;;21.10;99.90;;;;;;5031538;28;20063;-41
2023/09/20 00:07:50;;;;;;;1.63;1.10;;;21.10;99.90;;;;;;5031491;28;20029;-44
2023/09/20 00:10:18;;;;;;;1.65;0.93;;;21.10;99.90;;;;;;5031336;28;20387;-40
2023/09/20 00:12:44;;;;;;;2.63;0.80;;;21.10;99.90;;;;;;5031209;28;20121;-38
2023/09/20 00:15:11;;;;;;;1.80;0.95;;;21.10;99.90;;;;;;5030961;28;20023;-37
2023/09/20 00:17:37;;;;;;;3.20;1.00;;;21.10;99.90;;;;;;5030942;28;20049;-40
2023/09/20 00:20:06;;;;;;;3.38;1.13;;;21.10;99.90;;;;;;5030955;28;20053;-40
2023/09/20 00:22:31;;;;;;;2.00;1.02;;;21.10;99.90;;;;;;5030795;28;20025;-39
2023/09/20 00:24:59;;;;;;;1.77;1.10;;;21.10;99.90;;;;;;5031023;28;20029;-41
2023/09/20 00:27:25;;;;;;;2.15;1.00;;;21.10;99.90;;;;;;5030872;28;20364;-40
2023/09/20 00:29:51;;;;;;;1.50;0.82;;;21.10;99.90;;;;;;5030791;28;20112;-39
2023/09/20 00:32:17;;;;;;;1.55;0.90;;;21.10;99.90;;;;;;5030788;28;20441;-43
2023/09/20 00:34:42;;;;;;;2.45;0.90;;;21.10;99.90;;;;;;5031315;28;20040;-40
2023/09/20 00:37:08;;;;;;;2.00;1.25;;;21.10;99.90;;;;;;5031038;28;20021;-40
2023/09/20 00:39:34;;;;;;;3.20;1.15;;;21.10;99.90;;;;;;5034571;28;20025;-38
2023/09/20 00:41:59;;;;;;;1.90;1.02;;;21.10;99.90;;;;;;5034312;28;20041;-41
2023/09/20 00:44:25;;;;;;;2.40;1.30;;;21.10;99.90;;;;;;5034430;28;20033;-40
2023/09/20 00:46:52;;;;;;;1.52;1.00;;;21.10;99.90;;;;;;5034365;28;20441;-40
2023/09/20 00:49:20;;;;;;;1.67;1.13;;;21.00;99.90;;;;;;5034333;28;20566;-39
2023/09/20 00:51:47;;;;;;;2.20;1.15;;;21.00;99.90;;;;;;5033984;28;20551;-41
2023/09/20 00:54:14;;;;;;;2.10;1.20;;;21.00;99.90;;;;;;5034189;28;20021;-40
2023/09/20 00:56:40;;;;;;;1.88;0.80;;;21.00;99.90;;;;;;5034099;28;20440;-39
2023/09/20 00:59:07;;;;;;;1.95;1.20;;;21.10;99.90;;;;;;5034145;28;20471;-41
2023/09/20 01:01:34;;;;;;;2.55;1.00;;;21.00;99.90;;;;;;5034004;28;20159;-38
2023/09/20 01:04:02;;;;;;;1.65;1.02;;;21.00;99.90;;;;;;5034062;28;20021;-41
2023/09/20 01:06:27;;;;;;;2.50;1.10;;;21.00;99.90;;;;;;5033757;28;20061;-42
2023/09/20 01:08:54;;;;;;;1.92;0.90;;;21.00;99.90;;;;;;5034208;28;20103;-39
2023/09/20 01:11:20;;;;;;;3.10;1.20;;;21.00;99.90;;;;;;5034031;28;20662;-43
2023/09/20 01:13:47;;;;;;;1.67;0.95;;;21.00;99.90;;;;;;5033919;28;20025;-41
2023/09/20 01:16:16;;;;;;;2.65;1.35;;;21.00;99.90;;;;;;5033571;28;20080;-41
2023/09/20 01:18:45;;;;;;;1.00;0.70;;;21.00;99.90;;;;;;5033697;28;20043;-40
2023/09/20 01:21:14;;;;;;;1.20;1.05;;;21.00;99.90;;;;;;5033773;28;20112;-42
2023/09/20 01:23:43;;;;;;;1.65;1.10;;;21.00;99.90;;;;;;5033993;28;20426;-39
2023/09/20 01:26:11;;;;;;;1.10;1.00;;;21.00;99.90;;;;;;5033427;28;20540;-40
2023/09/20 01:28:37;;;;;;;1.88;1.00;;;21.00;99.90;;;;;;5034033;28;20490;-37
2023/09/20 01:31:05;;;;;;;0.85;0.73;;;21.00;99.90;;;;;;5033355;28;20436;-40
2023/09/20 01:33:31;;;;;;;1.10;1.00;;;21.00;99.90;;;;;;5033544;28;20132;-40
2023/09/20 01:35:58;;;;;;;3.58;1.10;;;21.00;99.90;;;;;;5033176;28;20437;-39
2023/09/20 01:38:25;;;;;;;1.42;0.90;;;21.00;99.90;;;;;;5033487;28;20359;-37
2023/09/20 01:40:55;;;;;;;3.17;0.90;;;21.00;99.90;;;;;;5033294;28;20031;-40
2023/09/20 01:43:21;;;;;;;2.92;1.23;;;21.00;99.90;;;;;;5033405;28;20018;-37
2023/09/20 01:45:47;;;;;;;3.63;1.00;;;21.00;99.90;;;;;;5033131;28;20024;-38
2023/09/20 01:48:15;;;;;;;2.55;1.10;;;21.00;99.90;;;;;;5033277;28;20441;-41
2023/09/20 01:50:43;;;;;;;4.93;1.30;;;21.00;99.90;;;;;;5032449;28;20049;-43
2023/09/20 01:53:11;;;;;;;1.83;1.10;;;20.90;99.90;;;;;;5033080;28;20053;-41
2023/09/20 01:55:37;;;;;;;2.53;1.20;;;20.90;99.90;;;;;;5032891;28;20025;-37
2023/09/20 01:58:07;;;;;;;1.85;1.10;;;20.90;99.90;;;;;;5033057;28;20525;-40
2023/09/20 02:00:37;;;;;;;2.80;1.10;;;20.90;99.90;;;;;;5032868;28;20108;-37
2023/09/20 02:03:19;;;;;;;3.13;1.27;;;20.90;99.90;;;;;;5032965;28;20104;-39
2023/09/20 02:05:47;;;;;;;2.05;1.10;;;20.90;99.90;;;;;;5032765;28;20025;-40
2023/09/20 02:08:14;;;;;;;1.48;0.82;;;20.90;99.90;;;;;;5032968;28;20223;-43
2023/09/20 02:10:40;;;;;;;2.28;1.00;;;20.90;99.90;;;;;;5032573;28;20036;-39
2023/09/20 02:13:07;;;;;;;3.03;0.80;;;20.90;99.90;;;;;;5014887;28;20548;-42
2023/09/20 02:15:36;;;;;;;3.60;1.40;;;20.90;99.90;;;;;;5032568;28;20075;-45
2023/09/20 02:18:05;;;;;;;1.50;1.00;;;20.90;99.90;;;;;;5032708;28;20032;-43
2023/09/20 02:20:36;;;;;;;3.72;1.10;;;20.90;99.90;;;;;;5032583;28;20379;-41
2023/09/20 02:23:04;;;;;;;4.70;1.40;;;20.90;99.90;;;;;;5032628;28;20032;-38
2023/09/20 02:25:29;;;;;;;1.67;1.30;;;20.90;99.90;;;;;;5032274;28;20060;-42
2023/09/20 02:27:57;;;;;;;2.08;1.10;;;20.80;99.90;;;;;;5032510;28;20486;-42
2023/09/20 02:30:35;;;;;;;1.40;1.00;;;20.90;99.90;;;;;;5032386;28;20029;-38
2023/09/20 02:33:06;;;;;;;3.65;1.30;;;20.90;99.90;;;;;;5032289;28;20022;-45
2023/09/20 02:35:32;;;;;;;1.70;1.10;;;20.80;99.90;;;;;;5032140;28;20033;-40
2023/09/20 02:38:04;;;;;;;2.03;1.10;;;20.80;99.90;;;;;;5032158;28;20048;-41
2023/09/20 02:40:30;;;;;;;1.58;1.10;;;20.90;99.90;;;;;;5032058;28;20483;-41
2023/09/20 02:43:00;;;;;;;4.07;1.10;;;20.80;99.90;;;;;;5032204;28;20037;-40
2023/09/20 02:45:30;;;;;;;1.30;1.00;;;20.90;99.90;;;;;;5032066;28;20111;-40
2023/09/20 02:47:57;;;;;;;1.55;1.00;;;20.80;99.90;;;;;;5032550;28;20021;-39
2023/09/20 02:50:23;;;;;;;4.28;1.08;;;20.80;99.90;;;;;;5031862;28;20552;-41
2023/09/20 02:52:50;;;;;;;3.35;1.25;;;20.90;99.90;;;;;;5031910;28;20030;-41
2023/09/20 02:55:19;;;;;;;3.22;1.30;;;20.80;99.90;;;;;;5032098;28;20424;-42
2023/09/20 02:57:45;;;;;;;2.97;1.20;;;20.90;99.90;;;;;;5031936;28;20021;-40
2023/09/20 03:00:16;;;;;;;2.95;1.10;;;20.90;99.90;;;;;;5031701;28;20087;-40
2023/09/20 03:02:46;;;;;;;2.72;1.50;;;20.90;99.90;;;;;;5031215;28;20057;-41
2023/09/20 03:05:17;;;;;;;2.42;1.00;;;20.80;99.90;;;;;;5030342;28;20592;-37
2023/09/20 03:07:47;;;;;;;2.85;1.20;;;20.80;99.90;;;;;;5031781;28;20045;-40
2023/09/20 03:10:14;;;;;;;2.85;1.20;;;20.80;99.90;;;;;;5031654;28;20032;-42
2023/09/20 03:12:44;;;;;;;1.88;1.13;;;20.80;99.90;;;;;;5031609;28;20025;-40
2023/09/20 03:15:17;;;;;;;2.45;1.20;;;20.80;99.90;;;;;;5031550;28;20474;-37
2023/09/20 03:17:50;;;;;;;4.33;1.27;;;20.80;99.90;;;;;;5031640;28;20022;-40
2023/09/20 03:20:22;;;;;;;3.50;1.10;;;20.80;99.90;;;;;;5031535;28;20052;-44
2023/09/20 03:22:49;;;;;;;2.75;1.23;;;20.80;99.90;;;;;;5031727;28;20029;-44
2023/09/20 03:25:19;;;;;;;5.45;1.30;;;20.80;99.90;;;;;;5031485;28;20048;-40
2023/09/20 03:27:49;;;;;;;1.58;1.17;;;20.80;99.90;;;;;;5031498;28;20021;-40
2023/09/20 03:30:20;;;;;;;4.30;1.20;;;20.80;99.90;;;;;;5031362;28;20037;-40
2023/09/20 03:32:46;;;;;;;1.98;0.90;;;20.80;99.90;;;;;;5031282;28;20437;-42
2023/09/20 03:35:12;;;;;;;2.47;1.30;;;20.80;99.90;;;;;;5013504;28;20364;-41
2023/09/20 03:37:40;;;;;;;1.98;1.17;;;20.70;99.90;;;;;;5031723;28;20022;-45
2023/09/20 03:40:16;;;;;;;1.63;0.90;;;20.70;99.90;;;;;;5032318;28;20416;-41
2023/09/20 03:42:43;;;;;;;2.75;1.20;;;20.80;99.90;;;;;;5031315;28;20033;-38
2023/09/20 03:45:10;;;;;;;2.35;1.10;;;20.70;99.90;;;;;;5031206;28;20026;-43
2023/09/20 03:47:39;;;;;;;1.65;1.20;;;20.70;99.90;;;;;;5031412;28;20052;-40
2023/09/20 03:50:07;;;;;;;1.52;0.90;;;20.70;99.90;;;;;;5031175;28;20029;-39
2023/09/20 03:52:33;;;;;;;1.75;1.00;;;20.70;99.90;;;;;;5031092;28;20040;-43
2023/09/20 03:54:59;;;;;;;1.77;0.93;;;20.80;99.90;;;;;;5030984;28;20017;-45
2023/09/20 03:57:25;;;;;;;2.10;1.30;;;20.70;99.90;;;;;;5031104;28;20022;-42
2023/09/20 03:59:54;;;;;;;3.03;1.70;;;20.70;99.90;;;;;;5031117;28;20470;-38
2023/09/20 04:02:23;;;;;;;1.67;1.27;;;20.70;99.90;;;;;;5031264;28;20421;-41
2023/09/20 04:04:50;;;;;;;2.50;1.45;;;20.70;99.90;;;;;;5031270;28;20412;-41
2023/09/20 04:07:15;;;;;;;3.47;1.30;;;20.70;99.90;;;;;;5031079;28;20036;-38
2023/09/20 04:09:41;;;;;;;2.25;0.90;;;20.80;99.90;;;;;;5013153;28;20029;-38
2023/09/20 04:12:07;;;;;;;3.03;1.30;;;20.70;99.90;;;;;;5031335;28;20533;-45
2023/09/20 04:14:33;;;;;;;3.70;1.10;;;20.70;99.90;;;;;;5035104;28;20105;-37
2023/09/20 04:16:59;;;;;;;1.35;1.00;;;20.70;99.90;;;;;;5034988;28;20028;-41
2023/09/20 04:19:24;;;;;;;1.83;1.27;;;20.70;99.90;;;;;;5035245;28;20026;-41
2023/09/20 04:21:50;;;;;;;2.70;1.30;;;20.70;99.90;;;;;;5034793;28;20041;-37
2023/09/20 04:24:17;;;;;;;1.90;0.98;;;20.70;99.90;;;;;;5034685;28;20029;-38
2023/09/20 04:26:43;;;;;;;2.45;1.38;;;20.70;99.90;;;;;;5017074;28;20553;-37
2023/09/20 04:29:08;;;;;;;1.40;0.90;;;20.70;99.90;;;;;;5034747;28;20037;-41
2023/09/20 04:31:34;;;;;;;2.00;1.10;;;20.70;99.90;;;;;;5034618;28;20075;-45
2023/09/20 04:34:00;;;;;;;3.53;1.00;;;20.70;99.90;;;;;;5035045;28;20096;-41
2023/09/20 04:36:27;;;;;;;3.85;1.13;;;20.70;99.90;;;;;;5034405;28;20021;-41
2023/09/20 04:38:53;;;;;;;2.05;1.20;;;20.70;99.90;;;;;;5034472;28;20040;-38
2023/09/20 04:41:18;;;;;;;2.88;1.10;;;20.60;99.90;;;;;;5034315;28;20060;-43
2023/09/20 04:43:44;;;;;;;1.85;1.10;;;20.60;99.90;;;;;;5034460;28;20486;-41
2023/09/20 04:46:10;;;;;;;5.03;1.30;;;20.60;99.90;;;;;;5034190;28;20037;-44
2023/09/20 04:48:40;;;;;;;2.55;1.63;;;20.30;99.90;;;;;;5034843;28;20024;-43
2023/09/20 04:51:06;;;;;;;3.70;1.40;;;20.00;99.90;;;;;;5034035;28;20021;-40
2023/09/20 04:53:35;;;;;;;4.30;1.30;;;19.60;99.90;;;;;;5034195;28;20095;-40
2023/09/20 04:56:02;;;;;;;1.88;1.20;;;19.50;99.90;;;;;;5034128;28;20032;-39
2023/09/20 04:58:28;;;;;;;4.55;1.40;;;19.50;99.90;;;;;;5034456;28;20482;-39
2023/09/20 05:00:54;;;;;;;5.25;1.30;;;19.60;99.90;;;;;;5033991;28;20037;-39
2023/09/20 05:03:20;;;;;;;2.00;1.38;;;19.70;99.90;;;;;;5034559;28;20018;-37
2023/09/20 05:05:50;;;;;;;5.53;1.45;;;19.80;99.90;;;;;;5033851;28;20457;-39
2023/09/20 05:08:16;;;;;;;2.08;1.08;;;19.80;99.90;;;;;;5034063;28;20030;-40
2023/09/20 05:10:45;;;;;;;2.60;1.40;;;19.90;99.90;;;;;;5033910;28;20029;-38
2023/09/20 05:13:11;;;;;;;4.03;1.40;;;19.90;99.90;;;;;;5033945;28;20390;-40
2023/09/20 05:15:37;;;;;;;6.18;1.30;;;19.90;99.90;;;;;;5033674;28;20026;-38
2023/09/20 05:18:07;;;;;;;2.53;1.20;;;20.00;99.90;;;;;;5033861;28;20044;-37
2023/09/20 05:20:35;;;;;;;3.33;1.42;;;20.00;99.90;;;;;;5033623;28;20076;-37
2023/09/20 05:23:04;;;;;;;4.10;1.50;;;20.10;99.90;;;;;;5033744;28;20022;-38
2023/09/20 05:25:31;;;;;;;2.47;1.42;;;20.10;99.90;;;;;;5032569;28;20029;-38
2023/09/20 05:27:57;;;;;;;1.70;1.17;;;20.10;99.90;;;;;;5033635;28;20022;-37
2023/09/20 05:30:24;;;;;;;4.25;1.50;;;20.10;99.90;;;;;;5033485;28;20032;-38
2023/09/20 05:32:51;;;;;;;5.85;1.45;;;20.10;99.90;;;;;;5033348;28;20033;-38
2023/09/20 05:35:17;;;;;;;3.35;1.20;;;20.10;99.90;;;;;;5033562;28;20463;-39
2023/09/20 05:37:44;;;;;;;3.40;1.27;;;20.20;99.90;;;;;;5033717;28;20022;-38
2023/09/20 05:40:19;;;;;;;3.25;1.20;;;20.20;99.90;;;;;;5033424;28;20029;-40
2023/09/20 05:42:46;;;;;;;2.17;1.35;;;20.20;99.90;;;;;;5033421;28;20029;-38
2023/09/20 05:45:15;;;;;;;3.58;1.40;;;20.20;99.90;;;;;;5033167;28;20029;-42
2023/09/20 05:47:41;;;;;;;4.00;1.25;;;20.20;99.90;;;;;;5033170;28;20030;-39
2023/09/20 05:50:10;;;;;;;4.60;1.45;;;20.20;99.90;;;;;;5033170;28;20483;-38
2023/09/20 05:52:40;;;;;;;4.82;1.40;;;20.20;99.90;;;;;;5033255;28;20026;-40
2023/09/20 05:55:08;;;;;;;1.33;1.10;;;20.20;99.90;;;;;;5033301;28;20021;-41
2023/09/20 05:57:34;;;;;;;4.82;1.23;;;20.20;99.90;;;;;;5033023;28;20094;-45
2023/09/20 06:00:09;;;;;;;1.75;1.15;;;20.30;99.90;;;;;;5032882;28;20101;-41
2023/09/20 06:02:35;;;;;;;2.25;1.30;;;20.30;99.90;;;;;;5032962;28;20076;-39
2023/09/20 06:05:00;;;;;;;2.63;1.10;;;20.30;99.90;;;;;;5033059;28;20398;-39
2023/09/20 06:07:27;;;;;;;1.67;1.10;;;20.30;99.90;;;;;;5032925;28;20039;-37
2023/09/20 06:09:54;;;;;;;2.95;1.00;;;20.30;99.90;;;;;;5032914;28;20116;-38
2023/09/20 06:12:19;;;;;;;1.98;1.27;;;20.30;99.90;;;;;;5032718;28;20026;-41
2023/09/20 06:14:45;;;;;;;2.10;1.10;;;20.30;99.90;;;;;;5032538;28;20024;-36
2023/09/20 06:17:10;;;;;;;2.85;1.30;;;20.30;99.90;;;;;;5032688;28;20030;-39
2023/09/20 06:19:37;;;;;;;2.20;1.48;;;20.30;99.90;;;;;;5032866;28;20101;-38
2023/09/20 06:22:03;;;;;;;1.40;1.20;;;20.40;99.90;;;;;;5032568;28;20099;-41
2023/09/20 06:24:29;;;;;;;4.18;1.13;;;20.40;99.90;;;;;;5032582;28;20021;-39
2023/09/20 06:26:55;;;;;;;2.00;1.27;;;20.40;99.90;;;;;;5032849;28;20025;-37
2023/09/20 06:29:21;;;;;;;1.45;0.93;;;20.40;99.90;;;;;;5032372;28;20512;-42
2023/09/20 06:31:46;;;;;;;2.35;1.08;;;20.40;99.90;;;;;;5032497;28;20017;-39
2023/09/20 06:34:17;;;;;;;1.58;1.10;;;20.50;99.90;;;;;;5032457;28;20048;-42
2023/09/20 06:36:43;;;;;;;2.67;1.30;;;20.40;99.90;;;;;;5032142;28;20057;-40
2023/09/20 06:39:08;;;;;;;2.50;1.20;;;20.20;99.90;;;;;;5032268;28;20072;-38
2023/09/20 06:41:34;;;;;;;4.82;1.45;;;19.80;99.90;;;;;;5032018;28;20045;-39
2023/09/20 06:44:00;;;;;;;5.00;1.60;;;19.60;99.90;;;;;;5032131;28;20037;-40
2023/09/20 06:46:25;;;;;;;2.92;1.20;;;19.60;99.90;;;;;;5032056;28;20032;-37
2023/09/20 06:48:52;;;;;;;2.95;1.35;;;19.50;99.90;;;;;;5032269;28;20108;-38
2023/09/20 06:51:17;;;;;;;4.25;1.10;;;19.50;99.90;;;;;;5031935;28;20109;-40
2023/09/20 06:53:44;;;;;;;3.72;1.40;;;19.60;99.90;;;;;;5032028;28;20151;-37
2023/09/20 06:56:10;;;;;;;1.83;1.20;;;19.60;99.90;;;;;;5031725;28;20021;-41
2023/09/20 06:58:38;;;;;;;2.88;1.13;;;19.60;99.90;;;;;;5031847;28;20035;-44
2023/09/20 07:01:04;;;;;;;2.65;1.13;;;19.70;99.90;;;;;;5031852;28;20021;-40
2023/09/20 07:03:32;;;;;;;2.40;1.30;;;19.70;99.90;;;;;;5031950;28;20021;-42
2023/09/20 07:05:57;;;;;;;1.67;1.33;;;19.70;99.90;;;;;;5031662;28;20021;-39
2023/09/20 07:08:23;;;;;;;1.30;0.95;;;19.70;99.90;;;;;;5031800;28;20017;-40
2023/09/20 07:10:50;;;;;;;3.45;1.33;;;19.80;99.90;;;;;;5031725;28;20029;-40
2023/09/20 07:13:18;;;;;;;1.85;1.25;;;19.80;99.90;;;;;;5031720;28;20025;-43
2023/09/20 07:15:44;;;;;;;2.50;1.10;;;19.90;99.90;;;;;;5031590;28;20028;-41
2023/09/20 07:18:13;;;;;;;3.00;1.23;;;19.80;99.90;;;;;;5031840;28;20017;-38
2023/09/20 07:20:40;;;;;;;3.30;1.13;;;19.90;99.90;;;;;;5031500;28;20487;-42
2023/09/20 07:23:12;;;;;;;3.78;1.30;;;19.90;99.90;;;;;;5031600;28;20025;-45
2023/09/20 07:25:39;;;;;;;1.83;1.08;;;19.90;99.90;;;;;;5031328;28;20029;-37
2023/09/20 07:28:06;;;;;;;1.85;1.10;;;20.00;99.90;;;;;;5031438;28;20032;-45
2023/09/20 07:30:34;;;;;;;2.90;1.30;;;20.00;99.90;;;;;;5031344;28;20030;-39
2023/09/20 07:33:03;;;;;;;1.85;1.13;;;20.00;99.90;;;;;;5031421;28;20033;-43
2023/09/20 07:35:36;;;;;;;2.08;1.10;;;20.00;99.90;;;;;;5031254;28;20018;-39
2023/09/20 07:38:04;;;;;;;1.88;1.30;;;20.10;99.90;;;;;;5031331;28;20057;-40
2023/09/20 07:40:30;;;;;;;1.85;1.05;;;20.10;99.90;;;;;;5031107;28;20398;-43
2023/09/20 07:43:10;;;;;;;2.28;1.20;;;20.10;99.90;;;;;;5031262;28;20140;-43
2023/09/20 07:45:41;;;;;;;2.53;1.20;;;20.10;99.90;;;;;;5031175;28;20032;-39
2023/09/20 07:48:17;;;;;;;1.13;1.00;;;20.10;99.90;;;;;;5030711;28;20032;-42
2023/09/20 07:50:50;;;;;;;2.85;1.13;;;20.20;99.90;;;;;;5031319;28;20026;-41
2023/09/20 07:53:18;;;;;;;4.07;1.20;;;20.20;99.90;;;;;;5031203;28;20387;-45
2023/09/20 07:55:45;;;;;;;3.70;1.08;;;20.20;99.90;;;;;;5031042;28;20029;-43
2023/09/20 07:58:13;;;;;;;3.53;1.42;;;20.10;99.90;;;;;;5031615;28;20024;-41
2023/09/20 08:00:42;;;;;;;4.25;1.15;;;20.10;99.90;;;;;;5031123;28;20031;-45
2023/09/20 08:03:09;;;;;;;3.38;1.15;;;20.20;99.90;;;;;;5031188;28;20032;-39
2023/09/20 08:05:34;;;;;;;3.15;1.30;;;20.30;99.90;;;;;;5030893;28;20053;-40
2023/09/20 08:08:00;;;;;;;6.70;1.50;;;20.30;99.90;;;;;;5031181;28;20449;-39
2023/09/20 08:10:26;;;;;;;3.83;1.60;;;20.40;99.90;;;;;;5031615;28;20068;-37
2023/09/20 08:12:53;;;;;;;1.48;1.08;;;20.40;99.90;;;;;;5031375;28;20125;-37
2023/09/20 08:15:20;;;;;;;2.78;1.27;;;20.50;99.90;;;;;;5031246;28;20018;-40
2023/09/20 08:20:34;;;;;;;3.30;1.52;;;20.60;99.90;;;;;;5030985;28;20036;-38
2023/09/20 09:01:44;;;;;;;4.78;1.40;;;21.00;99.90;;;;;;5034406;28;20032;-37
2023/09/20 09:04:12;;;;;;;1.70;1.02;;;21.10;99.90;;;;;;5034501;28;20049;-39
2023/09/20 09:06:39;;;;;;;2.45;1.10;;;21.10;99.90;;;;;;5033920;28;20545;-38
2023/09/20 09:09:04;;;;;;;2.30;1.10;;;21.10;99.90;;;;;;5034014;28;20033;-37
2023/09/20 09:11:30;;;;;;;2.47;1.13;;;21.10;99.90;;;;;;5034091;28;20055;-38
2023/09/20 09:14:00;;;;;;;2.05;0.90;;;21.20;99.90;;;;;;5033810;28;20471;-40
2023/09/20 09:16:33;;;;;;;1.85;1.10;;;21.20;99.90;;;;;;5033752;28;20033;-41
2023/09/20 09:18:59;;;;;;;3.90;1.27;;;21.20;99.90;;;;;;5033841;28;20475;-38
2023/09/20 09:21:26;;;;;;;1.30;1.00;;;21.30;99.90;;;;;;5033708;28;20022;-40
2023/09/20 09:23:52;;;;;;;2.25;0.70;;;21.20;99.90;;;;;;5033662;28;20457;-39
2023/09/20 09:26:17;;;;;;;2.03;1.00;;;21.30;99.90;;;;;;5033422;28;20055;-40
2023/09/20 09:28:46;;;;;;;1.65;1.08;;;21.30;99.90;;;;;;5033766;28;20022;-40
2023/09/20 09:31:14;;;;;;;1.95;1.00;;;21.40;99.90;;;;;;5033654;28;20025;-38
2023/09/20 09:33:40;;;;;;;1.85;1.00;;;21.40;99.90;;;;;;5033667;28;20101;-40
2023/09/20 09:36:06;;;;;;;1.23;0.93;;;21.40;99.90;;;;;;5033362;28;20104;-40
2023/09/20 09:38:34;;;;;;;1.77;0.80;;;21.40;99.90;;;;;;5033399;28;20560;-43
2023/09/20 09:41:02;;;;;;;1.40;1.00;;;21.50;99.90;;;;;;5033827;28;20581;-40
2023/09/20 09:43:31;;;;;;;1.77;1.02;;;21.50;99.90;;;;;;5033568;28;20021;-41
2023/09/20 09:46:10;;;;;;;1.60;1.02;;;21.50;99.90;;;;;;5033321;28;20525;-40
2023/09/20 09:48:37;;;;;;;1.73;1.02;;;21.50;99.90;;;;;;5033945;28;20034;-43
2023/09/20 09:51:05;;;;;;;1.35;0.90;;;21.50;99.90;;;;;;5033239;28;20034;-40
2023/09/20 09:53:34;;;;;;;1.40;1.13;;;21.60;99.90;;;;;;5033261;28;20363;-39
2023/09/20 09:56:04;;;;;;;1.27;1.10;;;21.60;99.90;;;;;;5033004;28;20049;-39
2023/09/20 09:58:29;;;;;;;1.77;1.02;;;21.60;99.90;;;;;;5033136;28;20026;-38
2023/09/20 10:00:57;;;;;;;2.15;1.20;;;21.60;99.90;;;;;;5033047;28;20033;-39
2023/09/20 10:03:32;;;;;;;1.50;0.90;;;21.60;99.90;;;;;;5033051;28;20109;-39
2023/09/20 10:06:12;;;;;;;1.42;1.00;;;21.60;99.90;;;;;;5032627;28;20506;-39
2023/09/20 10:08:40;;;;;;;1.70;1.08;;;21.70;99.90;;;;;;5032935;28;20033;-45
2023/09/20 10:11:08;;;;;;;1.77;0.82;;;21.70;99.90;;;;;;5032281;28;20025;-43
2023/09/20 10:13:35;;;;;;;1.52;1.00;;;21.70;99.90;;;;;;5032795;28;20030;-41
2023/09/20 10:16:04;;;;;;;1.85;1.00;;;21.70;99.90;;;;;;5032577;28;20048;-41
2023/09/20 10:18:58;;;;;;;2.78;0.82;;;21.80;99.90;;;;;;5032662;28;20029;-38
2023/09/20 10:21:26;;;;;;;1.93;1.23;;;21.70;99.90;;;;;;5033765;28;20037;-39
2023/09/20 10:23:59;;;;;;;1.92;1.10;;;21.80;99.90;;;;;;5032686;28;20486;-39
2023/09/20 10:26:26;;;;;;;1.40;1.00;;;21.80;99.90;;;;;;5032583;28;20533;-42
2023/09/20 10:29:21;;;;;;;4.20;1.38;;;21.80;99.90;;;;;;5032504;28;20025;-39
2023/09/20 10:31:47;;;;;;;2.05;1.10;;;21.80;99.90;;;;;;5021466;28;20120;-43
2023/09/20 10:34:14;;;;;;;1.30;0.93;;;21.80;99.90;;;;;;5032422;28;20025;-38
2023/09/20 10:36:52;;;;;;;4.20;1.80;;;21.80;99.90;;;;;;5032082;28;20017;-42
2023/09/20 10:39:18;;;;;;;3.80;1.70;;;21.80;99.90;;;;;;5031534;28;20029;-41
2023/09/20 10:41:45;;;;;;;2.80;1.60;;;21.80;99.90;;;;;;5033034;28;20120;-39
2023/09/20 10:44:30;;;;;;;3.35;1.70;;;21.80;99.90;;;;;;5032309;28;20033;-39
2023/09/20 10:47:00;;;;;;;2.90;1.60;;;21.80;99.90;;;;;;5032433;28;20034;-40
2023/09/20 10:49:48;;;;;;;3.38;2.05;;;21.90;99.90;;;;;;5031967;28;20030;-40
2023/09/20 10:52:34;;;;;;;3.50;1.63;;;21.90;99.90;;;;;;5032243;28;20413;-44
2023/09/20 10:55:18;;;;;;;4.05;1.98;;;21.90;99.90;;;;;;5032016;28;20072;-42
2023/09/20 10:57:46;;;;;;;3.22;1.58;;;21.80;99.90;;;;;;5032111;28;20022;-46
2023/09/20 11:00:14;;;;;;;3.65;2.05;;;21.90;99.90;;;;;;5014426;28;20026;-41
2023/09/20 11:02:41;;;;;;;2.22;1.50;;;21.90;99.90;;;;;;5031984;28;20018;-40
2023/09/20 11:05:07;;;;;;;2.38;1.80;;;21.90;99.90;;;;;;5031816;28;20026;-40
2023/09/20 11:07:33;;;;;;;4.50;1.65;;;21.90;99.90;;;;;;5031758;28;20033;-41
2023/09/20 11:09:59;;;;;;;3.63;2.03;;;21.90;99.90;;;;;;5032001;28;20033;-42
2023/09/20 11:12:25;;;;;;;2.90;1.80;;;21.90;99.90;;;;;;5031628;28;20083;-43
2023/09/20 11:14:51;;;;;;;3.13;1.55;;;21.90;99.90;;;;;;5032037;28;20021;-42
2023/09/20 11:17:19;;;;;;;2.35;1.50;;;21.90;99.90;;;;;;5031872;28;20022;-43
2023/09/20 11:19:45;;;;;;;2.22;1.52;;;21.90;99.90;;;;;;5031688;28;20045;-44
2023/09/20 11:22:13;;;;;;;2.60;1.70;;;21.90;99.90;;;;;;5030929;28;20076;-41
2023/09/20 11:24:41;;;;;;;2.05;1.70;;;21.90;99.90;;;;;;5031583;28;20044;-40
2023/09/20 11:27:08;;;;;;;2.30;1.50;;;21.90;99.90;;;;;;5031489;28;20029;-40
2023/09/20 11:29:49;;;;;;;2.97;1.70;;;21.90;99.90;;;;;;5031795;28;20474;-44
2023/09/20 11:32:16;;;;;;;2.03;1.50;;;21.90;99.90;;;;;;5031470;28;20087;-43
2023/09/20 11:34:49;;;;;;;1.67;1.50;;;21.90;99.90;;;;;;5032244;28;20021;-41
2023/09/20 11:37:19;;;;;;;3.38;1.90;;;21.90;99.90;;;;;;5031574;28;20108;-38
2023/09/20 11:39:49;;;;;;;2.47;1.77;;;21.90;99.90;;;;;;5013875;28;20432;-39
2023/09/20 11:42:43;;;;;;;1.67;1.50;;;21.90;99.90;;;;;;5013802;28;20029;-43
2023/09/20 11:45:10;;;;;;;2.78;1.48;;;21.90;99.90;;;;;;5030560;28;20049;-46
2023/09/20 11:47:42;;;;;;;3.20;1.70;;;22.00;99.90;;;;;;5031266;28;20510;-44
2023/09/20 11:50:15;;;;;;;3.35;1.80;;;22.00;99.90;;;;;;5031181;28;20414;-44
2023/09/20 11:52:48;;;;;;;3.58;2.03;;;22.00;99.90;;;;;;5031369;28;20036;-43
2023/09/20 11:55:19;;;;;;;2.63;1.50;;;22.00;99.90;;;;;;5031449;28;20037;-42
2023/09/20 11:57:45;;;;;;;2.53;1.50;;;22.00;99.90;;;;;;5031417;28;20029;-46
2023/09/20 12:00:25;;;;;;;1.98;1.50;;;22.00;99.90;;;;;;5031165;28;20025;-44
2023/09/20 12:02:53;;;;;;;2.75;1.67;;;22.00;99.90;;;;;;5031706;28;20135;-41
2023/09/20 12:05:21;;;;;;;1.88;1.35;;;22.00;99.90;;;;;;5030900;28;20033;-41
2023/09/20 12:08:01;;;;;;;2.25;1.58;;;22.00;99.90;;;;;;5013419;28;20053;-39
2023/09/20 12:10:29;;;;;;;3.38;1.80;;;22.00;99.90;;;;;;5031097;28;20022;-42
2023/09/20 12:12:55;;;;;;;3.28;1.70;;;22.00;99.90;;;;;;5031025;28;20021;-42
2023/09/20 12:15:22;;;;;;;2.42;1.63;;;22.00;99.90;;;;;;5031248;28;20374;-43
2023/09/20 12:17:50;;;;;;;2.05;1.67;;;22.00;99.90;;;;;;5031422;28;20021;-40
2023/09/20 12:20:16;;;;;;;3.05;1.63;;;22.10;99.90;;;;;;5031305;28;20018;-40
2023/09/20 12:22:43;;;;;;;2.10;1.75;;;22.10;99.90;;;;;;5031044;28;20104;-42
2023/09/20 12:25:16;;;;;;;2.55;1.67;;;22.10;99.90;;;;;;5031724;28;20037;-41
2023/09/20 12:27:48;;;;;;;2.35;1.58;;;22.10;99.90;;;;;;5031691;28;20495;-41
2023/09/20 12:30:15;;;;;;;2.50;1.45;;;22.10;99.90;;;;;;5031333;28;20048;-40
2023/09/20 12:32:41;;;;;;;2.40;1.60;;;22.10;99.90;;;;;;5030936;28;20029;-40
2023/09/20 12:35:09;;;;;;;2.35;1.58;;;22.10;99.90;;;;;;5034382;28;20093;-40
2023/09/20 12:37:35;;;;;;;1.98;1.35;;;22.10;99.90;;;;;;5034676;28;20445;-41
2023/09/20 12:40:06;;;;;;;2.00;1.58;;;22.10;99.90;;;;;;5034320;28;20552;-42
2023/09/20 12:42:34;;;;;;;6.40;2.20;;;22.10;99.90;;;;;;5034593;28;20390;-44
2023/09/20 12:45:04;;;;;;;4.05;2.47;;;22.10;99.90;;;;;;5016576;28;20033;-45
2023/09/20 12:47:31;;;;;;;5.07;2.40;;;22.20;99.90;;;;;;5034418;28;20064;-41
2023/09/20 12:49:57;;;;;;;5.07;2.40;;;22.30;99.90;;;;;;5034364;28;20550;-43
2023/09/20 12:52:23;;;;;;;2.70;2.03;;;22.40;99.90;;;;;;5034315;28;20113;-43
2023/09/20 12:54:48;;;;;;;5.22;2.17;;;22.50;99.90;;;;;;5034261;28;20053;-44
2023/09/20 12:57:15;;;;;;;4.57;2.20;;;22.50;99.90;;;;;;5034324;28;20068;-42
2023/09/20 12:59:41;;;;;;;7.32;2.35;;;22.60;99.90;;;;;;5030724;28;20044;-43
2023/09/20 13:02:08;;;;;;;3.38;2.38;;;22.70;98.70;;;;;;5017096;28;20056;-48
2023/09/20 13:04:34;;;;;;;3.67;2.25;;;22.70;99.10;;;;;;5017637;28;20543;-39
2023/09/20 13:06:59;;;;;;;3.97;2.22;;;22.70;99.90;;;;;;5033947;28;20034;-43
2023/09/20 13:09:27;;;;;;;2.80;2.15;;;22.80;99.70;;;;;;5034053;28;20037;-43
2023/09/20 13:11:53;;;;;;;3.92;2.40;;;22.90;99.50;;;;;;5033863;28;20475;-40
2023/09/20 13:14:19;;;;;;;4.40;2.10;;;22.90;99.90;;;;;;5033843;28;20025;-46
2023/09/20 13:16:49;;;;;;;15.15;2.38;;;22.90;99.90;;;;;;5033705;28;20018;-41
2023/09/20 13:19:16;;;;;;;3.28;2.08;;;22.90;99.90;;;;;;5033910;28;20025;-43
2023/09/20 13:21:41;;;;;;;4.28;2.13;;;23.00;99.50;;;;;;5033713;28;20037;-41
2023/09/20 13:24:08;;;;;;;3.33;2.00;;;23.00;99.50;;;;;;5033834;28;20040;-40
2023/09/20 13:26:35;;;;;;;7.18;2.15;;;23.00;99.90;;;;;;5033887;28;20042;-47
2023/09/20 13:29:01;;;;;;;2.53;1.70;;;23.00;99.70;;;;;;5033783;28;20390;-41
2023/09/20 13:31:27;;;;;;;2.70;1.85;;;23.10;99.90;;;;;;5033692;28;20481;-41
2023/09/20 13:33:52;;;;;;;3.25;1.85;;;23.10;99.90;;;;;;5033584;28;20129;-41